^^
Saratoga-Weather Station Historical Data
Daily Summary for June 30, 2022 Units:  English    Metric   Both
Daily Weekly Monthly Yearly Custom
  High: Low: Average:
Temperature: 82.8 °F 55.8 °F 66 °F
Dew Point: 64 °F 53.1 °F 57.2 °F
Humidity: 92% 47% 75%
Wind Speed: 21mph 0mph 2.8mph
Wind Gust: 29mph - -
Wind- - West
Pressure: 30 in 29.8 in -
Precipitation: 0.08 in    
Historical Graphs
 
 
Tabular Data for June 30, 2022
Time Temperature Dew Point Pressure Wind Wind Speed Wind Gust Humidity Rainfall Rate (Hourly) solar
00:02 66.4 °F 56.7 °F 29.9 in Calm     71% 0 in 0 W/m2
00:07 66 °F 56.3 °F 29.9 in Calm     71% 0 in 0 W/m2
00:12 65.8 °F 56.5 °F 29.9 in Calm     72% 0 in 0 W/m2
00:17 65.8 °F 56.5 °F 29.9 in Calm     72% 0 in 0 W/m2
00:22 65.7 °F 56.3 °F 29.9 in Calm     72% 0 in 0 W/m2
00:27 65.5 °F 55.8 °F 29.9 in Calm     71% 0 in 0 W/m2
00:32 65.5 °F 56.3 °F 29.9 in Calm     72% 0 in 0 W/m2
00:37 65.1 °F 55.9 °F 29.9 in Calm     72% 0 in 0 W/m2
00:42 65.1 °F 56.3 °F 29.9 in Calm     73% 0 in 0 W/m2
00:47 64.9 °F 56.1 °F 29.9 in Calm     73% 0 in 0 W/m2
00:52 64.9 °F 56.1 °F 29.9 in Calm     73% 0 in 0 W/m2
00:57 64.9 °F 56.1 °F 29.9 in Calm     73% 0 in 0 W/m2
01:02 64.8 °F 55.9 °F 29.9 in Calm     73% 0 in 0 W/m2
01:07 64.6 °F 55.8 °F 29.9 in Calm     73% 0 in 0 W/m2
01:12 64.6 °F 56.1 °F 29.9 in Calm     74% 0 in 0 W/m2
01:17 64.4 °F 55.9 °F 29.8 in Calm     74% 0 in 0 W/m2
01:22 64.2 °F 56.1 °F 29.8 in Calm     75% 0 in 0 W/m2
01:27 64 °F 55.9 °F 29.8 in Calm     75% 0 in 0 W/m2
01:32 63.9 °F 56.1 °F 29.8 in Calm     76% 0 in 0 W/m2
01:37 63.7 °F 55.9 °F 29.8 in Calm     76% 0 in 0 W/m2
01:42 63.3 °F 55.6 °F 29.8 in Calm     76% 0 in 0 W/m2
01:47 63.1 °F 55.8 °F 29.8 in Calm     77% 0 in 0 W/m2
01:52 63 °F 55.6 °F 29.8 in Calm     77% 0 in 0 W/m2
01:57 62.8 °F 55.4 °F 29.8 in Calm     77% 0 in 0 W/m2
02:02 62.8 °F 55.4 °F 29.8 in Calm     77% 0 in 0 W/m2
02:07 62.8 °F 55.8 °F 29.8 in Calm     78% 0 in 0 W/m2
02:12 62.8 °F 55.8 °F 29.8 in Calm     78% 0 in 0 W/m2
02:17 62.6 °F 55.6 °F 29.8 in Calm     78% 0 in 0 W/m2
02:22 62.4 °F 55.4 °F 29.8 in Calm     78% 0 in 0 W/m2
02:27 62.2 °F 55.6 °F 29.8 in Calm     79% 0 in 0 W/m2
02:32 62.2 °F 55.6 °F 29.8 in Calm     79% 0 in 0 W/m2
02:37 62.1 °F 55.8 °F 29.8 in Calm     80% 0 in 0 W/m2
02:42 62.1 °F 55.8 °F 29.8 in Calm     80% 0 in 0 W/m2
02:47 62.1 °F 55.8 °F 29.8 in Calm     80% 0 in 0 W/m2
02:52 61.9 °F 55.6 °F 29.8 in Calm     80% 0 in 0 W/m2
02:57 61.9 °F 55.9 °F 29.8 in Calm     81% 0 in 0 W/m2
03:02 61.9 °F 55.9 °F 29.8 in Calm     81% 0 in 0 W/m2
03:07 61.7 °F 55.8 °F 29.8 in Calm     81% 0 in 0 W/m2
03:12 61.5 °F 55.6 °F 29.8 in Calm     81% 0 in 0 W/m2
03:17 61.5 °F 55.6 °F 29.8 in Calm     81% 0 in 0 W/m2
03:22 61.3 °F 55.8 °F 29.8 in Calm     82% 0 in 0 W/m2
03:28 61.3 °F 55.8 °F 29.8 in Calm     82% 0 in 0 W/m2
03:33 61.2 °F 55.6 °F 29.8 in Calm     82% 0 in 0 W/m2
03:38 61 °F 55.4 °F 29.8 in Calm     82% 0 in 0 W/m2
03:43 61 °F 55.8 °F 29.8 in Calm     83% 0 in 0 W/m2
03:48 60.6 °F 55.4 °F 29.8 in Calm     83% 0 in 0 W/m2
03:53 60.6 °F 55.4 °F 29.8 in Calm     83% 0 in 0 W/m2
03:58 60.4 °F 55.2 °F 29.8 in Calm     83% 0 in 0 W/m2
04:03 60.3 °F 55.4 °F 29.8 in Calm     84% 0 in 0 W/m2
04:08 60.1 °F 55.2 °F 29.8 in Calm     84% 0 in 0 W/m2
04:13 60.1 °F 55.2 °F 29.8 in Calm     84% 0 in 0 W/m2
04:18 59.7 °F 55.2 °F 29.8 in Calm     85% 0 in 0 W/m2
04:23 59.7 °F 55.2 °F 29.8 in Calm     85% 0 in 0 W/m2
04:28 59.7 °F 55.2 °F 29.8 in Calm     85% 0 in 0 W/m2
04:33 59.5 °F 55 °F 29.8 in Calm     85% 0 in 0 W/m2
04:38 59.5 °F 55 °F 29.8 in Calm     85% 0 in 0 W/m2
04:43 59.4 °F 54.9 °F 29.8 in Calm     85% 0 in 0 W/m2
04:48 59.4 °F 54.9 °F 29.8 in Calm     85% 0 in 0 W/m2
04:53 59.2 °F 54.7 °F 29.8 in Calm     85% 0 in 0 W/m2
04:58 59.2 °F 54.7 °F 29.8 in Calm     85% 0 in 0 W/m2
05:03 59.2 °F 55 °F 29.8 in Calm     86% 0 in 0 W/m2
05:08 59.2 °F 55 °F 29.8 in Calm     86% 0 in 0 W/m2
05:13 59 °F 54.9 °F 29.8 in Calm     86% 0 in 0 W/m2
05:18 58.8 °F 54.7 °F 29.8 in Calm     86% 0 in 0 W/m2
05:23 58.8 °F 54.7 °F 29.8 in Calm     86% 0 in 0 W/m2
05:28 58.6 °F 54.9 °F 29.8 in Calm     87% 0 in 0 W/m2
05:33 58.6 °F 54.9 °F 29.8 in Calm     87% 0 in 0 W/m2
05:38 58.5 °F 54.7 °F 29.8 in Calm     87% 0 in 5 W/m2
05:43 58.5 °F 54.7 °F 29.8 in Calm     87% 0 in 7 W/m2
05:48 58.3 °F 54.5 °F 29.8 in Calm     87% 0 in 9 W/m2
05:53 58.3 °F 54.5 °F 29.8 in Calm     87% 0 in 11 W/m2
05:58 58.3 °F 54.5 °F 29.8 in Calm     87% 0 in 12 W/m2
06:03 58.1 °F 54.5 °F 29.8 in Calm     88% 0 in 14 W/m2
06:08 58.1 °F 54.5 °F 29.8 in Calm     88% 0 in 16 W/m2
06:13 58.1 °F 54.5 °F 29.8 in Calm     88% 0 in 18 W/m2
06:18 58.1 °F 54.5 °F 29.8 in Calm     88% 0 in 21 W/m2
06:23 58.3 °F 54.7 °F 29.8 in Calm     88% 0 in 21 W/m2
06:28 58.3 °F 54.7 °F 29.8 in Calm     88% 0 in 23 W/m2
06:33 58.3 °F 54.7 °F 29.8 in Calm     88% 0 in 25 W/m2
06:38 58.5 °F 54.9 °F 29.8 in Calm     88% 0 in 26 W/m2
06:43 58.6 °F 55 °F 29.8 in Calm     88% 0 in 28 W/m2
06:48 58.8 °F 55 °F 29.8 in Calm     87% 0 in 28 W/m2
06:53 59.4 °F 55.2 °F 29.8 in Calm     86% 0 in 32 W/m2
06:58 59.7 °F 55.6 °F 29.8 in Calm     86% 0 in 33 W/m2
07:03 60.3 °F 55.8 °F 29.8 in Calm     85% 0 in 37 W/m2
07:08 60.8 °F 55.9 °F 29.8 in Calm     84% 0 in 40 W/m2
07:13 61.2 °F 56.3 °F 29.8 in Calm     84% 0 in 44 W/m2
07:18 61.3 °F 56.1 °F 29.8 in Calm     83% 0 in 47 W/m2
07:23 61.9 °F 56.7 °F 29.8 in Calm     83% 0 in 169 W/m2
07:28 62.2 °F 57 °F 29.8 in Calm     83% 0 in 162 W/m2
07:33 63 °F 57.4 °F 29.8 in Calm     82% 0 in 165 W/m2
07:38 63.7 °F 57.7 °F 29.8 in Calm     81% 0 in 206 W/m2
07:43 64.8 °F 58.5 °F 29.8 in Calm     80% 0 in 221 W/m2
07:48 65.5 °F 58.5 °F 29.8 in Calm     78% 0 in 255 W/m2
07:53 66.4 °F 59 °F 29.8 in Calm     77% 0 in 255 W/m2
07:58 67.3 °F 59 °F 29.8 in Calm     75% 0 in 260 W/m2
08:03 67.8 °F 59.2 °F 29.8 in Calm   1 mph 74% 0 in 232 W/m2
08:08 68.4 °F 59 °F 29.8 in Calm   2 mph 72% 0 in 185 W/m2
08:13 68.5 °F 59.2 °F 29.8 in NNE 2 mph 3 mph 72% 0 in 200 W/m2
08:18 68.4 °F 59.4 °F 29.8 in NNE 0.9 mph 2 mph 73% 0 in 167 W/m2
08:23 68.2 °F 59.2 °F 29.8 in Calm     73% 0 in 174 W/m2
08:28 68.2 °F 58.5 °F 29.8 in Calm   2 mph 71% 0 in 148 W/m2
08:33 68.2 °F 58.1 °F 29.8 in Calm   1 mph 70% 0 in 141 W/m2
08:38 68.4 °F 58.3 °F 29.8 in NE 0.9 mph 2 mph 70% 0 in 125 W/m2
08:43 68.4 °F 58.3 °F 29.8 in Calm     70% 0 in 127 W/m2
08:48 68.5 °F 58.8 °F 29.8 in Calm     71% 0 in 137 W/m2
08:53 68.7 °F 58.5 °F 29.8 in Calm   1 mph 70% 0 in 146 W/m2
08:58 69.1 °F 58.8 °F 29.8 in Calm     70% 0 in 153 W/m2
09:03 69.4 °F 58.8 °F 29.8 in Calm   2 mph 69% 0 in 153 W/m2
09:08 70 °F 59.4 °F 29.8 in Calm   2 mph 69% 0 in 151 W/m2
09:13 70.3 °F 59.7 °F 29.8 in Calm     69% 0 in 142 W/m2
09:18 71.2 °F 59.7 °F 29.8 in NE 0.9 mph 1 mph 67% 0 in 132 W/m2
09:23 72 °F 59.5 °F 29.8 in NNE 0.9 mph 2 mph 65% 0 in 114 W/m2
09:28 72.1 °F 60.1 °F 29.8 in Calm   1 mph 66% 0 in 102 W/m2
09:33 72.3 °F 60.3 °F 29.8 in West 0.9 mph 3 mph 66% 0 in 97 W/m2
09:38 72.7 °F 60.6 °F 29.8 in Calm     66% 0 in 95 W/m2
09:43 73.4 °F 61 °F 29.8 in SW 0.9 mph 2 mph 65% 0 in 93 W/m2
09:48 73.9 °F 61.9 °F 29.8 in East 2 mph 2 mph 66% 0 in 95 W/m2
09:53 74.5 °F 61.9 °F 29.8 in NNW 2 mph 2 mph 65% 0 in 155 W/m2
09:58 74.8 °F 61.9 °F 29.8 in WSW 0.9 mph 2 mph 64% 0 in 353 W/m2
10:03 75 °F 61.2 °F 29.8 in Calm   2 mph 62% 0 in 563 W/m2
10:08 75.4 °F 61.5 °F 29.8 in North 2.9 mph 4 mph 62% 0 in 575 W/m2
10:13 75.4 °F 61 °F 29.8 in North 0.9 mph 3 mph 61% 0 in 499 W/m2
10:18 75.2 °F 60.8 °F 29.8 in NW 2.9 mph 7 mph 61% 0 in 90 W/m2
10:23 75.2 °F 61.3 °F 29.8 in WNW 2 mph 7 mph 62% 0 in 612 W/m2
10:28 75.4 °F 61.9 °F 29.8 in WNW 4.9 mph 5 mph 63% 0 in 603 W/m2
10:33 75.6 °F 61.7 °F 29.8 in WSW 4 mph 7 mph 62% 0 in 643 W/m2
10:38 75.6 °F 61.7 °F 29.8 in NNW 0.9 mph 4 mph 62% 0 in 652 W/m2
10:43 76.1 °F 61.7 °F 29.8 in WNW 2.9 mph 7 mph 61% 0 in 661 W/m2
10:48 76.3 °F 61.3 °F 29.8 in West 4 mph 8 mph 60% 0 in 671 W/m2
10:53 76.5 °F 61.5 °F 29.8 in WNW 2.9 mph 4 mph 60% 0 in 696 W/m2
10:58 76.6 °F 61.2 °F 29.8 in WNW 4 mph 8 mph 59% 0 in 728 W/m2
11:03 76.8 °F 61.3 °F 29.8 in West 2.9 mph 4 mph 59% 0 in 708 W/m2
11:08 76.8 °F 61 °F 29.8 in ENE 0.9 mph 2 mph 58% 0 in 708 W/m2
11:13 77.2 °F 60.3 °F 29.8 in WNW 0.9 mph 7 mph 56% 0 in 740 W/m2
11:18 77.4 °F 60.4 °F 29.8 in West 2 mph 6 mph 56% 0 in 780 W/m2
11:23 77.4 °F 60.4 °F 29.8 in NNW 2 mph 7 mph 56% 0 in 780 W/m2
11:28 77.7 °F 60.8 °F 29.8 in WNW 4 mph 5 mph 56% 0 in 527 W/m2
11:33 78.1 °F 61.2 °F 29.8 in West 2 mph 4 mph 56% 0 in 487 W/m2
11:38 77.7 °F 60.8 °F 29.8 in West 2.9 mph 4 mph 56% 0 in 475 W/m2
11:43 77.7 °F 60.8 °F 29.8 in WNW 4 mph 7 mph 56% 0 in 446 W/m2
11:48 77.7 °F 60.8 °F 29.8 in SW 2.9 mph 4 mph 56% 0 in 473 W/m2
11:53 77.7 °F 61.3 °F 29.8 in WNW 4 mph 8 mph 57% 0 in 466 W/m2
11:58 77.5 °F 61.2 °F 29.8 in WNW 6 mph 6 mph 57% 0 in 909 W/m2
12:03 78.3 °F 61.7 °F 29.8 in West 2 mph 8 mph 57% 0 in 1048 W/m2
12:08 78.6 °F 60.6 °F 29.8 in NNW 2 mph 5 mph 54% 0 in 652 W/m2
12:13 78.8 °F 61.3 °F 29.8 in NNW 2.9 mph 8 mph 55% 0 in 392 W/m2
12:18 78.8 °F 61.3 °F 29.8 in NW 0.9 mph 4 mph 55% 0 in 622 W/m2
12:23 78.8 °F 61.3 °F 29.8 in North 4 mph 4 mph 55% 0 in 411 W/m2
12:28 78.8 °F 61.3 °F 29.8 in WNW 2.9 mph 6 mph 55% 0 in 483 W/m2
12:33 78.6 °F 61.2 °F 29.8 in West 2.9 mph 7 mph 55% 0 in 503 W/m2
12:38 79.2 °F 62.1 °F 29.8 in WNW 2 mph 5 mph 56% 0 in 1123 W/m2
12:43 79.5 °F 61.9 °F 29.8 in West 2.9 mph 7 mph 55% 0 in 476 W/m2
12:48 79.7 °F 61.5 °F 29.8 in WNW 2 mph 4 mph 54% 0 in 485 W/m2
12:53 79.3 °F 61.7 °F 29.8 in WNW 0.9 mph 5 mph 55% 0 in 364 W/m2
12:58 79.2 °F 61.5 °F 29.8 in Calm   6 mph 55% 0 in 487 W/m2
13:03 79.2 °F 61.2 °F 29.8 in WNW 0.9 mph 5 mph 54% 0 in 457 W/m2
13:08 79.3 °F 61.7 °F 29.8 in WNW 0.9 mph 1 mph 55% 0 in 689 W/m2
13:13 79.5 °F 61.3 °F 29.8 in NNW 0.9 mph 3 mph 54% 0 in 1099 W/m2
13:18 80.2 °F 62.1 °F 29.8 in Calm   3 mph 54% 0 in 628 W/m2
13:23 80.6 °F 60.8 °F 29.8 in NW 0.9 mph 3 mph 51% 0 in 575 W/m2
13:28 81 °F 60.1 °F 29.8 in South 0.9 mph 4 mph 49% 0 in 900 W/m2
13:33 81.3 °F 60.3 °F 29.8 in East 6 mph 6 mph 49% 0 in 889 W/m2
13:38 81.7 °F 60.6 °F 29.8 in NNW 0.9 mph 2 mph 49% 0 in 902 W/m2
13:43 82 °F 61.5 °F 29.8 in NNW 0.9 mph 3 mph 50% 0 in 807 W/m2
13:48 82.4 °F 60.8 °F 29.8 in ENE 0.9 mph 2 mph 48% 0 in 353 W/m2
13:53 82.6 °F 62.1 °F 29.8 in WSW 2 mph 3 mph 50% 0 in 387 W/m2
13:58 82.8 °F 60.4 °F 29.8 in West 0.9 mph 2 mph 47% 0 in 385 W/m2
14:03 82.6 °F 61 °F 29.8 in SSW 0.9 mph 2 mph 48% 0 in 343 W/m2
14:08 82.4 °F 60.1 °F 29.8 in Calm   3 mph 47% 0 in 332 W/m2
14:13 82.2 °F 59.9 °F 29.8 in West 0.9 mph 4 mph 47% 0 in 352 W/m2
14:18 82.2 °F 61.2 °F 29.8 in Calm     49% 0 in 385 W/m2
14:23 82.6 °F 60.3 °F 29.8 in East 2.9 mph 7 mph 47% 0 in 385 W/m2
14:28 82.4 °F 61.3 °F 29.8 in Calm   7 mph 49% 0 in 334 W/m2
14:33 82.2 °F 61.2 °F 29.8 in Calm   2 mph 49% 0 in 336 W/m2
14:39 82.2 °F 62.8 °F 29.8 in ESE 0.9 mph 7 mph 52% 0 in 338 W/m2
14:44 82.2 °F 62.8 °F 29.8 in WNW 11 mph 13 mph 52% 0 in 394 W/m2
14:49 80.4 °F 63.9 °F 29.8 in NW 13 mph 14 mph 57% 0 in 436 W/m2
14:54 79 °F 63.9 °F 29.8 in WNW 2.9 mph 11 mph 60% 0 in 601 W/m2
14:59 78.6 °F 64 °F 29.8 in WNW 4 mph 14 mph 61% 0 in 520 W/m2
15:04 78.4 °F 63.3 °F 29.8 in West 8.9 mph 14 mph 60% 0 in 548 W/m2
15:09 78.1 °F 63.5 °F 29.8 in WSW 6 mph 11 mph 61% 0 in 418 W/m2
15:14 77.5 °F 63.9 °F 29.8 in SSW 6 mph 14 mph 63% 0 in 399 W/m2
15:19 77 °F 63.5 °F 29.8 in West 2.9 mph 7 mph 63% 0 in 461 W/m2
15:24 76.5 °F 63.3 °F 29.8 in WSW 8.1 mph 13 mph 64% 0 in 422 W/m2
15:29 75.7 °F 63.1 °F 29.8 in West 8.9 mph 13 mph 65% 0 in 436 W/m2
15:34 75.9 °F 63.7 °F 29.8 in WNW 10.1 mph 14 mph 66% 0 in 313 W/m2
15:39 75.4 °F 62.8 °F 29.8 in WNW 12.1 mph 17 mph 65% 0 in 350 W/m2
15:44 74.8 °F 62.8 °F 29.8 in WNW 8.9 mph 19 mph 66% 0 in 605 W/m2
15:49 74.7 °F 63 °F 29.8 in West 6.9 mph 15 mph 67% 0 in 302 W/m2
15:54 74.5 °F 63.1 °F 29.8 in West 6 mph 12 mph 68% 0 in 427 W/m2
15:59 73.9 °F 63.1 °F 29.8 in WNW 8.1 mph 16 mph 69% 0 in 791 W/m2
16:04 74.1 °F 63 °F 29.8 in WSW 10.1 mph 18 mph 68% 0 in 751 W/m2
16:09 73.8 °F 63 °F 29.8 in West 8.1 mph 17 mph 69% 0 in 352 W/m2
16:14 73.6 °F 62.8 °F 29.8 in West 11 mph 14 mph 69% 0 in 301 W/m2
16:19 73.4 °F 62.2 °F 29.8 in West 8.9 mph 16 mph 68% 0 in 735 W/m2
16:24 72.7 °F 62.2 °F 29.8 in WNW 10.1 mph 19 mph 70% 0 in 345 W/m2
16:29 70.9 °F 61.3 °F 29.8 in NW 14.1 mph 17 mph 72% 0 in 288 W/m2
16:34 69.3 °F 60.6 °F 29.8 in WSW 6.9 mph 27 mph 74% 0 in 271 W/m2
16:39 68.2 °F 60.3 °F 29.8 in West 10.1 mph 22 mph 76% 0 in 417 W/m2
16:44 67.6 °F 59.7 °F 29.8 in WNW 15 mph 26 mph 76% 0 in 279 W/m2
16:49 66.7 °F 59 °F 29.8 in North 16.1 mph 20 mph 76% 0 in 163 W/m2
16:54 65.8 °F 58.5 °F 29.8 in West 15 mph 15 mph 77% 0 in 132 W/m2
16:59 64 °F 57 °F 29.8 in WNW 12.1 mph 29 mph 78% 0 in 118 W/m2
17:04 63 °F 56.3 °F 29.8 in West 12.1 mph 23 mph 79% 0 in 139 W/m2
17:09 61.9 °F 55.6 °F 29.8 in West 8.9 mph 28 mph 80% 0 in 139 W/m2
17:14 61 °F 55.4 °F 29.8 in West 13 mph 23 mph 82% 0 in 169 W/m2
17:19 60.8 °F 55.2 °F 29.8 in West 6.9 mph 21 mph 82% 0 in 262 W/m2
17:24 61 °F 55.8 °F 29.8 in WNW 8.9 mph 19 mph 83% 0 in 274 W/m2
17:29 61 °F 55.4 °F 29.8 in West 8.1 mph 18 mph 82% 0 in 234 W/m2
17:34 61 °F 55.4 °F 29.8 in WSW 15 mph 22 mph 82% 0 in 221 W/m2
17:39 61 °F 55.4 °F 29.8 in NW 21 mph 24 mph 82% 0 in 188 W/m2
17:44 60.8 °F 55.2 °F 29.9 in WNW 8.1 mph 19 mph 82% 0 in 171 W/m2
17:49 61 °F 55 °F 29.9 in WNW 8.9 mph 24 mph 81% 0 in 149 W/m2
17:54 61.2 °F 55.2 °F 29.9 in West 10.1 mph 17 mph 81% 0 in 130 W/m2
17:59 61.2 °F 54.9 °F 29.9 in WSW 15 mph 17 mph 80% 0 in 148 W/m2
18:04 61.3 °F 55 °F 29.9 in West 8.1 mph 15 mph 80% 0 in 169 W/m2
18:09 61.5 °F 55.2 °F 29.9 in WSW 10.1 mph 10 mph 80% 0 in 118 W/m2
18:14 61.7 °F 55 °F 29.9 in NW 4.9 mph 12 mph 79% 0 in 130 W/m2
18:19 62.2 °F 55.2 °F 29.9 in NW 2.9 mph 9 mph 78% 0 in 127 W/m2
18:24 62.4 °F 55 °F 29.9 in West 12.1 mph 19 mph 77% 0 in 120 W/m2
18:29 62.4 °F 54 °F 29.9 in NW 11 mph 17 mph 74% 0 in 109 W/m2
18:34 62.4 °F 53.6 °F 29.9 in WSW 8.9 mph 19 mph 73% 0 in 190 W/m2
18:39 62.4 °F 53.6 °F 29.9 in West 2.9 mph 8 mph 73% 0 in 174 W/m2
18:44 62.8 °F 54 °F 29.9 in NNW 4.9 mph 11 mph 73% 0 in 311 W/m2
18:49 63.1 °F 54 °F 29.9 in WSW 6.9 mph 12 mph 72% 0 in 155 W/m2
18:54 63 °F 53.8 °F 29.9 in West 6.9 mph 11 mph 72% 0 in 135 W/m2
18:59 63 °F 53.8 °F 29.9 in WSW 12.1 mph 14 mph 72% 0 in 171 W/m2
19:04 62.6 °F 53.8 °F 29.9 in WNW 10.1 mph 10 mph 73% 0 in 114 W/m2
19:09 62.4 °F 53.6 °F 29.9 in WSW 8.9 mph 14 mph 73% 0 in 100 W/m2
19:14 62.2 °F 53.1 °F 29.9 in WNW 11 mph 14 mph 72% 0 in 72 W/m2
19:19 61.9 °F 53.1 °F 29.9 in WSW 4.9 mph 10 mph 73% 0 in 40 W/m2
19:24 61.7 °F 53.2 °F 29.9 in WSW 10.1 mph 14 mph 74% 0 in 16 W/m2
19:29 61.3 °F 53.4 °F 29.9 in North 2 mph 10 mph 75% 0 in 28 W/m2
19:34 60.8 °F 54 °F 29.9 in WSW 2.9 mph 10 mph 78% 0 in 65 W/m2
19:39 60.1 °F 54.5 °F 29.9 in West 6 mph 7 mph 82% 0.01 in 54 W/m2
19:44 59.4 °F 54.1 °F 29.9 in West 2.9 mph 6 mph 83% 0.01 in 25 W/m2
19:49 59 °F 54.1 °F 29.9 in West 2 mph 4 mph 84% 0.01 in 18 W/m2
19:54 58.6 °F 54.1 °F 29.9 in NW 2.9 mph 7 mph 85% 0.02 in 28 W/m2
19:59 58.5 °F 54.3 °F 29.9 in WNW 2 mph 3 mph 86% 0.04 in 37 W/m2
20:04 58.3 °F 54.5 °F 29.9 in West 2 mph 4 mph 87% 0.04 in 67 W/m2
20:09 58.1 °F 54.3 °F 29.9 in West 2.9 mph 4 mph 87% 0.04 in 63 W/m2
20:14 57.9 °F 54.1 °F 29.9 in WSW 4.9 mph 6 mph 87% 0.04 in 47 W/m2
20:19 57.9 °F 53.8 °F 29.9 in West 2 mph 5 mph 86% 0.04 in 30 W/m2
20:24 58.1 °F 54.3 °F 29.9 in WSW 2 mph 3 mph 87% 0.04 in 28 W/m2
20:29 58.1 °F 54.5 °F 29.9 in WNW 0.9 mph 3 mph 88% 0.04 in 25 W/m2
20:34 57.9 °F 54.3 °F 29.9 in WSW 4 mph 6 mph 88% 0.04 in 25 W/m2
20:39 57.9 °F 54.3 °F 29.9 in WSW 2 mph 3 mph 88% 0.03 in 16 W/m2
20:44 57.7 °F 54 °F 29.9 in West 4 mph 7 mph 87% 0.03 in 12 W/m2
20:49 57.7 °F 54 °F 29.9 in WSW 2 mph 5 mph 87% 0.03 in 12 W/m2
20:54 57.6 °F 53.8 °F 29.9 in WSW 4.9 mph 5 mph 87% 0.02 in 12 W/m2
20:59 57.4 °F 53.6 °F 29.9 in WNW 2.9 mph 7 mph 87% 0.01 in 11 W/m2
21:04 57.2 °F 53.6 °F 29.9 in WSW 2.9 mph 3 mph 88% 0.01 in 7 W/m2
21:09 57 °F 53.4 °F 29.9 in WSW 6.9 mph 7 mph 88% 0.01 in 7 W/m2
21:14 56.8 °F 53.2 °F 29.9 in West 2 mph 4 mph 88% 0.02 in 9 W/m2
21:19 56.7 °F 53.4 °F 29.9 in West 0.9 mph 7 mph 89% 0.02 in 7 W/m2
21:24 56.7 °F 53.4 °F 29.9 in West 6 mph 6 mph 89% 0.02 in 5 W/m2
21:29 56.5 °F 53.6 °F 29.9 in WSW 4 mph 6 mph 90% 0.02 in 0 W/m2
21:34 56.5 °F 53.6 °F 29.9 in West 4 mph 7 mph 90% 0.02 in 0 W/m2
21:39 56.3 °F 53.4 °F 30 in WSW 2.9 mph 7 mph 90% 0.02 in 0 W/m2
21:44 56.1 °F 53.2 °F 30 in NW 2.9 mph 6 mph 90% 0.02 in 0 W/m2
21:49 56.1 °F 53.6 °F 30 in West 2 mph 3 mph 91% 0.02 in 0 W/m2
21:54 56.1 °F 53.6 °F 30 in West 4 mph 4 mph 91% 0.02 in 0 W/m2
21:59 56.1 °F 53.6 °F 30 in WSW 2.9 mph 8 mph 91% 0.02 in 0 W/m2
22:04 56.3 °F 54 °F 30 in WNW 2.9 mph 8 mph 92% 0.02 in 0 W/m2
22:09 56.3 °F 53.8 °F 30 in West 6 mph 8 mph 91% 0.02 in 0 W/m2
22:14 56.1 °F 53.6 °F 30 in WNW 4.9 mph 5 mph 91% 0.02 in 0 W/m2
22:19 56.1 °F 53.8 °F 30 in West 4 mph 4 mph 92% 0.02 in 0 W/m2
22:24 56.1 °F 53.8 °F 30 in WSW 2.9 mph 4 mph 92% 0.02 in 0 W/m2
22:29 56.1 °F 53.8 °F 30 in West 2.9 mph 7 mph 92% 0.02 in 0 W/m2
22:34 56.1 °F 53.8 °F 30 in West 2.9 mph 4 mph 92% 0.02 in 0 W/m2
22:39 56.1 °F 53.8 °F 30 in West 2 mph 4 mph 92% 0.02 in 0 W/m2
22:44 56.1 °F 53.8 °F 30 in Calm   4 mph 92% 0.02 in 0 W/m2
22:49 56.1 °F 53.8 °F 30 in NW 0.9 mph 4 mph 92% 0.02 in 0 W/m2
22:54 56.1 °F 53.8 °F 30 in Calm   3 mph 92% 0.02 in 0 W/m2
22:59 56.1 °F 53.8 °F 30 in WSW 0.9 mph 3 mph 92% 0.01 in 0 W/m2
23:04 55.9 °F 53.4 °F 30 in West 2 mph 7 mph 91% 0.01 in 0 W/m2
23:10 55.9 °F 53.6 °F 30 in West 4 mph 4 mph 92% 0.01 in 0 W/m2
23:15 55.9 °F 53.6 °F 30 in West 2 mph 3 mph 92% 0.01 in 0 W/m2
23:20 55.9 °F 53.6 °F 30 in WSW 2 mph 3 mph 92% 0 in 0 W/m2
23:25 55.9 °F 53.6 °F 30 in SW 2 mph 2 mph 92% 0 in 0 W/m2
23:30 55.9 °F 53.6 °F 30 in SW 0.9 mph 1 mph 92% 0 in 0 W/m2
23:35 55.9 °F 53.6 °F 30 in WNW 0.9 mph 4 mph 92% 0 in 0 W/m2
23:40 55.8 °F 53.4 °F 30 in WNW 0.9 mph 2 mph 92% 0 in 0 W/m2
23:45 55.8 °F 53.4 °F 30 in West 2 mph 3 mph 92% 0 in 0 W/m2
23:50 55.8 °F 53.4 °F 30 in West 0.9 mph 2 mph 92% 0 in 0 W/m2
23:55 55.8 °F 53.4 °F 30 in WNW 0.9 mph 2 mph 92% 0 in 0 W/m2
Juneau County Weather
Compliments of Weather Underground - 4 mb